Terminal Aerodrome Forecast
Issued by NWS Sterling, VA

Current Version | Previous Version | Graphics & Text | Print | Product List | Glossary On
Versions: 1 2 3 4 5 6 7 8 9 10 11 12 13 14 15 16 17 18 19 20 21 22 23 24 25 26 27 28 29
727
FTUS41 KLWX 202039 AAA
TAFDCA
TAF AMD
KDCA 202039Z 2021/2118 17005KT P6SM BKN013 OVC040
     FM210100 18003KT 3SM -DZ BR SCT003 OVC008
     FM211500 VRB03KT P6SM SCT003 OVC010=

USA.gov is the U.S. government's official web portal to all federal, state and local government web resources and services.